Latest Coastal Weather Observations for Dennes Point

IDT60701

Issued at 4:02 am EDT Tuesday 23 December 2014 (issued every 10 minutes, with the page automatically refreshed every 10 minutes)

About coastal observations | Map of coastal stations | Coastal observations for TAS | Marine services | Other Formats
Station Details ID: 094255 Name: DENNES POINT Lat: -43.06 Lon: 147.36 Height: 5.67 m
Data from the previous 72 hours. | See also: Recent months at Dennes Point
Date/Time
EDT
Temp

°C
Wind Pressure Rain
since 9am
mm
Weather Cloud Vis
km
Sea
Height
m
Swell
Dir
 
Speed
knots
Gust
knots
hPa Trend Height
m
Period
s
Dir
23/04:00am 15.9 CALM 0 1 1006.4 - 0.8 - - - - - - -
23/03:30am 16.2 S 3 4 1006.9 - 0.8 - - - - - - -
23/03:00am 16.4 CALM 0 0 1007.9 - 0.6 Rain - - - - - -
23/02:30am 16.7 CALM 0 1 1008.3 - 0.4 - - - - - - -
23/02:00am 16.8 NE 5 7 1008.6 - 0.4 - - - - - - -
23/01:30am 16.9 NE 7 9 1009.2 - 0.4 - - - - - - -
23/01:00am 16.8 ENE 4 6 1009.6 - 0.4 - - - - - - -
23/12:30am 16.8 ENE 6 9 1010.1 - 0.2 - - - - - - -
23/12:00am 17.1 ENE 9 11 1010.6 - 0.2 Recent precip. - - - - - -
 
Date/Time
EDT
Temp

°C
Wind Pressure Rain
since 9am
mm
Weather Cloud Vis
km
Sea
Height
m
Swell
Dir
 
Speed
knots
Gust
knots
hPa Trend Height
m
Period
s
Dir
22/11:30pm 17.6 NE 4 6 1011.2 - 0.0 - - - - - - -
22/11:00pm 17.7 ENE 3 4 1011.5 - 0.0 - - - - - - -
22/10:30pm 17.8 NE 7 8 1011.6 - 0.0 - - - - - - -
22/10:00pm 17.5 NNE 9 11 1011.8 - 0.0 - - - - - - -
22/09:30pm 17.4 NE 9 11 1011.7 - 0.0 - - - - - - -
22/09:00pm 17.6 NE 8 11 1011.1 - 0.0 - - - - - - -
22/08:30pm 17.7 NE 10 12 1011.2 - 0.0 - - - - - - -
22/08:00pm 17.6 ENE 13 16 1011.1 - 0.0 - - - - - - -
22/07:30pm 17.8 NE 17 20 1011.0 - 0.0 - - - - - - -
22/07:00pm 18.1 ENE 16 19 1010.8 - 0.0 - - - - - - -
22/06:30pm 18.7 ENE 14 17 1011.1 - 0.0 - - - - - - -
22/06:00pm 18.9 ENE 14 16 1011.4 - 0.0 - - - - - - -
22/05:30pm 18.9 NE 13 16 1011.6 - 0.0 - - - - - - -
22/05:00pm 18.6 ENE 14 18 1012.2 - 0.0 - - - - - - -
22/04:30pm 18.7 E 11 17 1012.6 - 0.0 - - - - - - -
22/04:00pm 18.9 ENE 13 16 1013.4 - 0.0 - - - - - - -
22/03:30pm 18.5 E 9 14 1013.6 - 0.0 - - - - - - -
22/03:00pm 18.0 ESE 7 11 1014.0 - 0.0 - - - - - - -
22/02:30pm 18.7 ESE 7 10 1014.4 - 0.0 - - - - - - -
22/02:00pm 19.1 ESE 6 8 1014.6 - 0.0 - - - - - - -
22/01:30pm 19.1 ESE 6 9 1014.8 - 0.0 - - - - - - -
22/01:00pm 19.1 ESE 7 9 1015.0 - 0.0 - - - - - - -
22/12:30pm 18.1 ESE 9 11 1015.2 - 0.0 - - - - - - -
22/12:00pm 17.9 ESE 11 13 1015.3 - 0.0 - - - - - - -
22/11:30am 18.1 ESE 11 14 1015.6 - 0.0 - - - - - - -
22/11:00am 17.5 ESE 9 12 1015.7 - 0.0 - - - - - - -
22/10:30am 16.9 ESE 9 12 1015.9 - 0.0 - - - - - - -
22/10:00am 16.2 ESE 7 9 1016.1 - 0.0 - - - - - - -
22/09:30am 16.1 ESE 8 10 1016.2 - 0.0 - - - - - - -
22/09:00am 16.1 ESE 7 10 1016.1 - 0.0 - - - - - - -
22/08:30am 14.9 ESE 7 8 1015.9 - 0.0 - - - - - - -
22/08:00am 15.0 E 7 9 1015.7 - 0.0 - - - - - - -
22/07:30am 14.4 E 8 9 1015.6 - 0.0 - - - - - - -
22/07:00am 14.2 ENE 8 10 1015.4 - 0.0 - - - - - - -
22/06:30am 13.0 S 1 2 1015.1 - 0.0 - - - - - - -
22/06:00am 13.5 E 5 7 1014.6 - 0.0 - - - - - - -
22/05:30am 12.8 ESE 3 4 1014.3 - 0.0 - - - - - - -
22/05:00am 12.2 ESE 2 3 1014.1 - 0.0 - - - - - - -
22/04:30am 12.1 SE 4 5 1014.0 - 0.0 - - - - - - -
22/04:00am 11.8 WNW 2 2 1014.0 - 0.0 - - - - - - -
22/03:30am 12.2 SSE 4 6 1013.9 - 0.0 - - - - - - -
22/03:00am 12.7 ESE 3 5 1014.0 - 0.0 - - - - - - -
22/02:30am 13.2 SSW 2 3 1013.9 - 0.0 - - - - - - -
22/02:00am 13.3 SW 7 9 1013.9 - 0.0 - - - - - - -
22/01:30am 14.5 SW 9 13 1013.9 - 0.0 - - - - - - -
22/01:00am 15.0 W 7 11 1013.8 - 0.0 - - - - - - -
22/12:30am 15.5 W 13 16 1013.6 - 0.0 - - - - - - -
22/12:00am 15.8 W 12 15 1013.5 - 0.0 - - - - - - -
 
Date/Time
EDT
Temp

°C
Wind Pressure Rain
since 9am
mm
Weather Cloud Vis
km
Sea
Height
m
Swell
Dir
 
Speed
knots
Gust
knots
hPa Trend Height
m
Period
s
Dir
21/11:30pm 15.7 WSW 12 15 1013.5 - 0.0 - - - - - - -
21/11:00pm 15.9 WSW 11 14 1013.5 - 0.0 - - - - - - -
21/10:30pm 16.3 WSW 9 13 1013.5 - 0.0 - - - - - - -
21/10:00pm 16.2 S 6 9 1013.4 - 0.0 - - - - - - -
21/09:30pm 15.6 ESE 7 8 1012.4 - 0.0 - - - - - - -
21/09:00pm 15.1 E 2 3 1011.9 - 0.0 - - - - - - -
21/08:30pm 16.0 E 4 6 1011.6 - 0.0 - - - - - - -
21/08:00pm 15.9 ENE 5 8 1011.3 - 0.0 - - - - - - -
21/07:30pm 16.6 ESE 8 10 1011.0 - 0.0 - - - - - - -
21/07:00pm 17.0 ESE 10 11 1010.5 - 0.0 - - - - - - -
21/06:30pm 17.0 ESE 10 13 1010.2 - 0.0 - - - - - - -
21/06:00pm 17.2 ESE 12 16 1009.9 - 0.0 - - - - - - -
21/05:30pm 17.8 ESE 12 16 1009.7 - 0.0 - - - - - - -
21/05:00pm 17.3 ESE 14 17 1009.8 - 0.0 - - - - - - -
21/04:30pm 20.1 SE 11 18 1009.6 - 0.0 - - - - - - -
21/04:00pm 20.9 SSE 10 19 1009.8 - 0.0 - - - - - - -
21/03:30pm 20.6 ESE 6 8 1009.4 - 0.0 - - - - - - -
21/03:00pm 21.5 ESE 8 10 1009.3 - 0.0 - - - - - - -
21/02:30pm 20.9 ESE 10 11 1009.2 - 0.0 - - - - - - -
21/02:00pm 20.9 ESE 8 10 1009.7 - 0.0 - - - - - - -
21/01:30pm 21.1 ESE 6 9 1010.3 - 0.0 - - - - - - -
21/01:00pm 20.6 NNE 5 7 1010.3 - 0.0 - - - - - - -
21/12:30pm 20.0 NNE 7 9 1010.7 - 0.0 - - - - - - -
21/12:00pm 19.5 NNE 7 8 1010.9 - 0.0 - - - - - - -
21/11:30am 19.4 NNE 5 7 1011.6 - 0.0 - - - - - - -
21/11:00am 17.9 NE 7 8 1012.0 - 0.0 - - - - - - -
21/10:30am 17.4 NNE 8 9 1012.6 - 0.0 - - - - - - -
21/10:00am 16.7 NNE 9 10 1013.4 - 0.0 - - - - - - -
21/09:30am 16.3 NNE 7 9 1013.8 - 0.0 - - - - - - -
21/09:00am 16.1 NNE 5 7 1014.1 - 0.0 - - - - - - -
21/08:30am 15.5 N 4 7 1014.1 - 0.0 - - - - - - -
21/08:00am 14.7 NW 3 4 1013.9 - 0.0 - - - - - - -
21/07:30am 13.9 CALM 0 0 1014.3 - 0.0 - - - - - - -
21/07:00am 12.7 SSW 1 2 1014.3 - 0.0 - - - - - - -
21/06:30am 12.7 SSW 2 3 1014.6 - 0.0 - - - - - - -
21/06:00am 11.8 WSW 3 4 1015.4 - 0.0 - - - - - - -
21/05:30am 12.9 WSW 2 3 1015.2 - 0.0 - - - - - - -
21/05:00am 13.9 NNE 4 6 1014.7 - 0.0 - - - - - - -
21/04:30am 13.7 NE 5 6 1014.3 - 0.0 - - - - - - -
21/04:00am 13.4 NE 5 8 1014.2 - 0.0 - - - - - - -
21/03:30am 13.0 ENE 4 5 1014.2 - 0.0 - - - - - - -
21/03:00am 12.0 CALM 0 0 1014.5 - 0.0 - - - - - - -
21/02:30am 11.9 SSW 2 3 1014.8 - 0.0 - - - - - - -
21/02:00am 11.6 SSW 3 3 1015.1 - 0.0 - - - - - - -
21/01:30am 11.1 SW 3 3 1015.5 - 0.0 - - - - - - -
21/01:00am 11.1 SSE 2 3 1015.8 - 0.0 - - - - - - -
21/12:30am 12.2 CALM 0 0 1016.0 - 0.0 - - - - - - -
21/12:00am 11.9 SE 2 3 1016.0 - 0.0 - - - - - - -
 
Date/Time
EDT
Temp

°C
Wind Pressure Rain
since 9am
mm
Weather Cloud Vis
km
Sea
Height
m
Swell
Dir
 
Speed
knots
Gust
knots
hPa Trend Height
m
Period
s
Dir
20/11:30pm 12.2 CALM 0 1 1016.3 - 0.0 - - - - - - -
20/11:00pm 12.0 SSE 1 3 1016.1 - 0.0 - - - - - - -
20/10:30pm 12.2 SSE 1 3 1016.2 - 0.0 - - - - - - -
20/10:00pm 12.6 S 6 9 1016.0 - 0.0 - - - - - - -
20/09:30pm 12.6 SSW 6 10 1015.9 - 0.0 - - - - - - -
20/09:00pm 13.1 SSW 8 12 1015.4 - 0.0 - - - - - - -
20/08:30pm 13.6 S 8 13 1015.1 - 0.0 - - - - - - -
20/08:00pm 14.4 S 10 16 1014.7 - 0.0 - - - - - - -
20/07:30pm 14.8 S 15 23 1014.2 - 0.0 - - - - - - -
20/07:00pm 15.1 S 10 16 1013.8 - 0.0 - - - - - - -
20/06:30pm 17.3 S 12 19 1013.5 - 0.0 - - - - - - -
20/06:00pm 17.0 S 12 18 1013.0 - 0.0 - - - - - - -
20/05:30pm 18.2 SSW 13 19 1012.7 - 0.0 - - - - - - -
20/05:00pm 19.3 S 11 16 1012.6 - 0.0 - - - - - - -
20/04:30pm 18.6 S 11 17 1012.6 - 0.0 - - - - - - -
20/04:00pm 18.7 S 11 17 1012.4 - 0.0 - - - - - - -
20/03:30pm 19.5 SSW 7 11 1012.2 - 0.0 - - - - - - -
20/03:00pm 19.0 SW 9 16 1012.4 - 0.0 - - - - - - -
20/02:30pm 19.8 WSW 12 17 1012.2 - 0.0 - - - - - - -
20/02:00pm 19.9 WSW 11 17 1012.1 - 0.0 - - - - - - -
20/01:30pm 19.2 SW 13 19 1012.0 - 0.0 - - - - - - -
20/01:00pm 19.9 SW 13 21 1011.9 - 0.0 - - - - - - -
20/12:30pm 20.4 WSW 13 17 1011.9 - 0.0 - - - - - - -
20/12:00pm 21.3 W 14 21 1011.9 - 0.0 - - - - - - -
20/11:30am 20.1 WSW 17 24 1011.9 - 0.0 - - - - - - -
20/11:00am 18.1 WSW 12 19 1011.9 - 0.0 - - - - - - -
20/10:30am 17.8 W 3 5 1011.8 - 0.0 - - - - - - -
20/10:00am 16.0 E 4 5 1011.8 - 0.0 - - - - - - -
20/09:30am 16.4 ENE 4 6 1011.7 - 0.0 - - - - - - -
20/09:00am 16.7 NNE 3 7 1011.5 - 0.2 - - - - - - -
20/08:30am 15.8 N 7 10 1011.1 - 0.2 - - - - - - -
20/08:00am 16.1 WNW 4 7 1010.8 - 0.2 - - - - - - -
20/07:30am 15.2 NNW 7 9 1010.3 - 0.2 - - - - - - -
20/07:00am 14.4 NNW 2 3 1010.0 - 0.2 - - - - - - -
20/06:30am 14.6 N 3 4 1009.7 - 0.2 - - - - - - -
20/06:00am 14.5 N 5 6 1009.6 - 0.2 - - - - - - -
20/05:30am 14.2 NNW 4 7 1009.5 - 0.2 - - - - - - -
20/05:00am 14.1 NW 5 8 1009.5 - 0.2 - - - - - - -
20/04:30am 14.0 N 3 5 1009.4 - 0.2 - - - - - - -

Other Formats:

Comma delimited format used in spreadsheet applications
http://www.bom.gov.au/fwo/IDT60701/IDT60701.94988.axf

JavaScript Object Notation format (JSON) in row-major order
http://www.bom.gov.au/fwo/IDT60701/IDT60701.94988.json